East Thetford, Vermont
Current Conditions -  °F | °C
As of 11:37 PM on Wednesday 26 Nov 2014 (Local Time) from KLEB Reporting Station
Light Snow Light Snow  
Wind Chill: -5°   Ceiling: 400
Heat Index: -1°   Visibility: 2.5mi
Dew Point: -2°   Wind: 8mph
Humidity: 89%   Direction: 330°NNW
Pressure: 29.83"   Gusts: NA
Location:  43.81°N, 72.19°W
Report Text: KLEB 270437Z AUTO 33007KT 2 1/2SM -SN BR BKN004 OVC009 M01/M02 A2983 RMK AO2 P0002 T10061022
Loading
Personal Weather Stations






























Interactive Weather Map New forecast layout! Learn more

10-Day Weather Forecast

Advertisements
Track Severe Weather on mobile